24 Datensätze sind 1 Tag. Aufzeichnung ab 07. Oktober 2014.
Werte (Summe von Anzahl und Position darf nicht größer sein als mögliche Datensätze).
Anzahl:
Position: Summe:
\ 24085 Datensätze möglich.
  20 letzte Aufzeichnungen
gezeigte Daten 20 ab Position 1    Summe der Auswahl = 21
21.09.2017 / 14:27 Uhr bis 22.09.2017 / 10:27 Uhr
Regenmenge 0 Liter

Datum/Zeit Temp. Taupunkt Luftfeuchte Wind speed Wind böhe Wind Temp. Regen Summe Luftdruck
22.09.2017 | 11:27 Uhr 15.3C 10.3C 72% 0.0 kmh 0.0kmh 16.8C 176.7mm 999.5361mBar/hPa
22.09.2017 | 10:27 Uhr 14.8C 10.4C 75% 2.2 kmh 0.4kmh 16.6C 176.7mm 998.4111mBar/hPa
22.09.2017 | 08:27 Uhr 12.8C 10.0C 83% 0.0 kmh 0.0kmh 14.6C 176.7mm 1001.5361mBar/hPa
22.09.2017 | 07:27 Uhr 11.7C 9.4C 86% 0.0 kmh 0.0kmh 12.4C 176.7mm 1000.0986mBar/hPa
22.09.2017 | 06:27 Uhr 11.1C 8.8C 86% 0.0 kmh 0.0kmh 10.8C 176.7mm 999.9111mBar/hPa
22.09.2017 | 05:27 Uhr 10.8C 8.4C 85% 0.0 kmh 0.0kmh 9.9C 176.7mm 1000.9736mBar/hPa
22.09.2017 | 04:27 Uhr 10.8C 8.4C 85% 0.0 kmh 0.0kmh 9.9C 176.7mm 999.7861mBar/hPa
22.09.2017 | 03:27 Uhr 10.8C 8.4C 85% 0.0 kmh 0.0kmh 9.8C 176.7mm 1000.9111mBar/hPa
22.09.2017 | 02:27 Uhr 10.8C 8.2C 84% 0.0 kmh 0.0kmh 9.8C 176.7mm 1000.7861mBar/hPa
22.09.2017 | 01:27 Uhr 11.1C 8.5C 84% 0.0 kmh 0.0kmh 9.9C 176.7mm 1000.9111mBar/hPa
22.09.2017 | 00:27 Uhr 11.3C 8.5C 83% 0.0 kmh 0.0kmh 10.2C 176.7mm 1000.9736mBar/hPa
21.09.2017 | 23:27 Uhr 11.6C 8.6C 82% 0.0 kmh 0.0kmh 10.6C 176.7mm 999.6611mBar/hPa
21.09.2017 | 22:27 Uhr 11.9C 8.9C 82% 0.0 kmh 0.0kmh 10.8C 176.7mm 1001.5986mBar/hPa
21.09.2017 | 21:27 Uhr 12.0C 8.8C 81% 0.0 kmh 0.0kmh 10.9C 176.7mm 1002.2861mBar/hPa
21.09.2017 | 20:27 Uhr 12.3C 8.9C 80% 0.0 kmh 0.0kmh 11.2C 176.7mm 1002.5361mBar/hPa
21.09.2017 | 19:27 Uhr 12.8C 8.9C 77% 0.0 kmh 0.0kmh 11.3C 176.7mm 1001.8486mBar/hPa
21.09.2017 | 18:27 Uhr 13.5C 9.0C 74% 0.0 kmh 0.0kmh 11.2C 176.7mm 1002.3486mBar/hPa
21.09.2017 | 17:27 Uhr 14.8C 10.0C 73% 0.0 kmh 0.0kmh 13.7C 176.7mm 1002.1611mBar/hPa
21.09.2017 | 16:27 Uhr 15.3C 9.9C 70% 0.0 kmh 0.0kmh 15.1C 176.7mm 1000.9736mBar/hPa
21.09.2017 | 15:27 Uhr 15.6C 9.7C 68% 1.1 kmh 0.3kmh 16.0C 176.7mm 1001.2236mBar/hPa